Carrier Princess — CZ3582 — position and weather

sailwx.info

Track history (hours):
 
Tides and Currents Weather Stations Pressure Air Temp Water Temp Dewpoint Dewpoint Depression Visibility Wind Speed Wind Dir Waves Ship Positions

Carrier Princess

Last reported at 2018-Apr-07 16:08 UTC. Time now 2018-Apr-26 00:20 UTC.
Position N 49°10' W 123°35'.
Warning: this ship's position is 18 days out of date.

Length 112 m; draft 3 m.

Type: Cargo ship. MMSI: 316003656.

Date/timePositionNaut miles runAvg speedWind from/ knotsBaromVisibWave heightAir tempDewpointWater temp
2018-Apr-07 16:08N 49°10' W 123°35'213.2
2018-Apr-07 15:57N 49°10' W 123°32'813.3
2018-Apr-07 15:21N 49°06' W 123°20'512.9
2018-Apr-07 14:59N 49°08' W 123°13'714.8
2018-Apr-07 14:30N 49°09' W 123°03'1 1.1
2018-Apr-07 14:00N 49°09' W 123°02'0 0.0
2018-Apr-07 13:30N 49°09' W 123°02'3 5.9
2018-Apr-07 13:00N 49°07' W 123°06'612.1
2018-Apr-07 12:28N 49°07' W 123°15'510.3
2018-Apr-07 11:59N 49°03' W 123°20'913.8
2018-Apr-07 11:20N 48°55' W 123°18'411.7
2018-Apr-07 11:00N 48°51' W 123°21'815.0
2018-Apr-07 10:30N 48°44' W 123°23'3 1.5
2018-Apr-07 08:48N 48°42' W 123°24'612.5
2018-Apr-07 08:19N 48°47' W 123°21'512.1
2018-Apr-07 07:54N 48°52' W 123°18'614.6
2018-Apr-07 07:28N 48°58' W 123°20'612.7
2018-Apr-07 07:00N 49°04' W 123°21'713.0
2018-Apr-07 06:30N 49°07' W 123°12'612.2
2018-Apr-07 06:00N 49°08' W 123°03'1 1.7
2018-Apr-07 05:30N 49°09' W 123°02'0 0.0
2018-Apr-07 05:00N 49°09' W 123°02'0 0.0
2018-Apr-07 04:29N 49°09' W 123°02'0 0.1
2018-Apr-07 04:00N 49°09' W 123°02'0 0.0
2018-Apr-07 03:30N 49°09' W 123°02'0 0.0
2018-Apr-07 03:00N 49°09' W 123°02'0 0.0
2018-Apr-07 02:30N 49°09' W 123°02'0 0.0
2018-Apr-07 02:00N 49°09' W 123°02'0 0.0
2018-Apr-07 01:30N 49°09' W 123°02'0 0.0
2018-Apr-07 01:00N 49°09' W 123°02'0 0.0
2018-Apr-07 00:30N 49°09' W 123°02'0 0.0
2018-Apr-07 00:00N 49°09' W 123°02'0 0.0
2018-Apr-06 23:29N 49°09' W 123°02'0 0.0
2018-Apr-06 23:00N 49°09' W 123°02'0 0.0
2018-Apr-06 22:30N 49°09' W 123°02'0 0.0
2018-Apr-06 22:00N 49°09' W 123°02'0 0.0
2018-Apr-06 21:30N 49°09' W 123°02'0 0.0
2018-Apr-06 21:00N 49°09' W 123°02'0 0.0
2018-Apr-06 20:30N 49°09' W 123°02'0 0.0
2018-Apr-06 20:00N 49°09' W 123°02'0 0.0
2018-Apr-06 19:30N 49°09' W 123°02'0 0.0
2018-Apr-06 19:00N 49°09' W 123°02'0 0.0
2018-Apr-06 18:30N 49°09' W 123°02'0 0.0
2018-Apr-06 18:01N 49°09' W 123°02'0 0.0
2018-Apr-06 17:30N 49°09' W 123°02'0 0.0
2018-Apr-06 17:00N 49°09' W 123°02'0 0.0
2018-Apr-06 16:30N 49°09' W 123°02'0 0.0
2018-Apr-06 16:00N 49°09' W 123°02'0 0.3
2018-Apr-06 15:30N 49°09' W 123°02'0 0.0
2018-Apr-06 14:59N 49°09' W 123°02'0 0.1
2018-Apr-06 14:30N 49°09' W 123°02'5 9.4
2018-Apr-06 14:00N 49°06' W 123°09'5 9.5
2018-Apr-06 13:30N 49°07' W 123°16'5 9.4
2018-Apr-06 13:01N 49°03' W 123°18'611.4
2018-Apr-06 12:31N 48°57' W 123°17'611.5
2018-Apr-06 12:00N 48°52' W 123°19'4 8.3
2018-Apr-06 11:31N 48°48' W 123°20'5 1.7
2018-Apr-06 08:40N 48°43' W 123°21'315.4
2018-Apr-06 08:29N 48°45' W 123°21'612.7
2018-Apr-06 08:00N 48°52' W 123°19'713.5
2018-Apr-06 07:30N 48°58' W 123°20'713.6
2018-Apr-06 07:00N 49°05' W 123°20'612.7
2018-Apr-06 06:30N 49°07' W 123°11'611.3
2018-Apr-06 06:00N 49°09' W 123°02'0 0.3
2018-Apr-06 05:30N 49°09' W 123°02'0 0.0
2018-Apr-06 05:00N 49°09' W 123°02'0 0.3
2018-Apr-06 04:30N 49°09' W 123°02'0 0.0
2018-Apr-06 04:00N 49°09' W 123°02'0 0.0
2018-Apr-06 03:30N 49°09' W 123°02'0 0.0
2018-Apr-06 03:00N 49°09' W 123°02'0 0.0
2018-Apr-06 02:30N 49°09' W 123°02'0 0.0
2018-Apr-06 02:00N 49°09' W 123°02'0 0.0
2018-Apr-06 01:30N 49°09' W 123°02'0 0.0
2018-Apr-06 01:00N 49°09' W 123°02'0 0.0
2018-Apr-06 00:30N 49°09' W 123°02'0 0.0
2018-Apr-06 00:00N 49°09' W 123°02'0 0.0
2018-Apr-05 23:30N 49°09' W 123°02'0 0.0
2018-Apr-05 23:00N 49°09' W 123°02'0 0.0
2018-Apr-05 22:30N 49°09' W 123°02'0 0.0
2018-Apr-05 22:00N 49°09' W 123°02'0 0.0
2018-Apr-05 21:30N 49°09' W 123°02'0 0.0
2018-Apr-05 21:00N 49°09' W 123°02'0 0.0
2018-Apr-05 20:30N 49°09' W 123°02'0 0.0
2018-Apr-05 20:00N 49°09' W 123°02'0 0.0
2018-Apr-05 19:30N 49°09' W 123°02'0 0.0
2018-Apr-05 19:00N 49°09' W 123°02'0 0.0
2018-Apr-05 18:30N 49°09' W 123°02'0 0.0
2018-Apr-05 18:00N 49°09' W 123°02'0 0.0
2018-Apr-05 17:30N 49°09' W 123°02'0 0.0
2018-Apr-05 17:00N 49°09' W 123°02'0 0.0
2018-Apr-05 16:30N 49°09' W 123°02'0 0.0
2018-Apr-05 16:00N 49°09' W 123°02'0 0.3
2018-Apr-05 15:30N 49°09' W 123°02'0 0.0
2018-Apr-05 15:00N 49°09' W 123°02'0 0.0
2018-Apr-05 14:30N 49°09' W 123°02'5 9.6
2018-Apr-05 14:00N 49°07' W 123°09'5 9.7
2018-Apr-05 13:30N 49°07' W 123°16'510.2
2018-Apr-05 12:59N 49°02' W 123°19'611.7
2018-Apr-05 12:30N 48°57' W 123°18'510.6
2018-Apr-05 12:00N 48°51' W 123°20'4 8.8
2018-Apr-05 11:30N 48°47' W 123°21'5 9.6
2018-Apr-05 11:00N 48°43' W 123°24'1 0.7
2018-Apr-05 08:59N 48°41' W 123°24'510.2
2018-Apr-05 08:31N 48°46' W 123°21'612.2
2018-Apr-05 08:01N 48°52' W 123°19'714.0
2018-Apr-05 07:30N 48°59' W 123°19'714.0
2018-Apr-05 07:00N 49°06' W 123°20'612.3
2018-Apr-05 06:30N 49°07' W 123°10'611.2
2018-Apr-05 06:00N 49°09' W 123°02'0 0.2
2018-Apr-05 05:30N 49°09' W 123°02'0 0.0
2018-Apr-05 05:00N 49°09' W 123°02'0 0.1
2018-Apr-05 04:30N 49°09' W 123°02'0 0.2
2018-Apr-05 04:00N 49°09' W 123°02'0 0.0
2018-Apr-05 03:30N 49°09' W 123°02'0 0.0
2018-Apr-05 03:00N 49°09' W 123°02'0 0.0
2018-Apr-05 02:30N 49°09' W 123°02'0 0.0
2018-Apr-05 02:00N 49°09' W 123°02'0 0.0
2018-Apr-05 01:30N 49°09' W 123°02'0 0.0
2018-Apr-05 01:00N 49°09' W 123°02'0 0.0
2018-Apr-05 00:30N 49°09' W 123°02'0 0.0
2018-Apr-05 00:00N 49°09' W 123°02'0 0.0
2018-Apr-04 23:30N 49°09' W 123°02'0 0.0
2018-Apr-04 23:00N 49°09' W 123°02'0 0.0
2018-Apr-04 22:30N 49°09' W 123°02'0 0.0
2018-Apr-04 22:00N 49°09' W 123°02'0 0.0
2018-Apr-04 21:30N 49°09' W 123°02'0 0.0
2018-Apr-04 21:00N 49°09' W 123°02'0 0.0
2018-Apr-04 20:30N 49°09' W 123°02'0 0.0
2018-Apr-04 20:00N 49°09' W 123°02'0 0.0
2018-Apr-04 19:30N 49°09' W 123°02'0 0.0
2018-Apr-04 19:00N 49°09' W 123°02'0 0.0
2018-Apr-04 18:30N 49°09' W 123°02'0 0.0
2018-Apr-04 18:00N 49°09' W 123°02'0 0.0
2018-Apr-04 17:30N 49°09' W 123°02'0 0.0
2018-Apr-04 17:00N 49°09' W 123°02'0 0.0
2018-Apr-04 16:30N 49°09' W 123°02'0 0.0
2018-Apr-04 16:00N 49°09' W 123°02'0 0.1
2018-Apr-04 15:30N 49°09' W 123°02'0 0.2
2018-Apr-04 15:00N 49°09' W 123°02'0 0.0
2018-Apr-04 14:30N 49°09' W 123°02'5 9.2
2018-Apr-04 14:00N 49°06' W 123°09'5 9.9
2018-Apr-04 13:30N 49°07' W 123°16'510.0
2018-Apr-04 13:00N 49°03' W 123°20'612.0
2018-Apr-04 12:30N 48°57' W 123°19'510.7
2018-Apr-04 12:00N 48°52' W 123°20'4 9.0
2018-Apr-04 11:30N 48°47' W 123°20'610.8
2018-Apr-04 10:57N 48°42' W 123°25'0 0.2
2018-Apr-04 09:00N 48°41' W 123°24'510.5
2018-Apr-04 08:30N 48°46' W 123°21'511.0
2018-Apr-04 08:00N 48°52' W 123°19'612.9
2018-Apr-04 07:30N 48°58' W 123°19'714.7
2018-Apr-04 07:00N 49°05' W 123°20'712.7
2018-Apr-04 06:29N 49°07' W 123°10'510.8
2018-Apr-04 06:00N 49°09' W 123°02'0 0.0
2018-Apr-04 05:30N 49°09' W 123°02'0 0.0
2018-Apr-04 05:00N 49°09' W 123°02'0 0.3
2018-Apr-04 04:30N 49°09' W 123°02'0 0.0
2018-Apr-04 04:00N 49°09' W 123°02'0 0.0
2018-Apr-04 03:30N 49°09' W 123°02'0 0.0
2018-Apr-04 03:00N 49°09' W 123°02'0 0.0
2018-Apr-04 02:30N 49°09' W 123°02'0 0.0
2018-Apr-04 02:00N 49°09' W 123°02'0 0.0
2018-Apr-04 01:30N 49°09' W 123°02'0 0.0
2018-Apr-04 01:00N 49°09' W 123°02'0 0.0
2018-Apr-04 00:30N 49°09' W 123°02'0 0.0
2018-Apr-04 00:00N 49°09' W 123°02'0 0.0
2018-Apr-03 23:30N 49°09' W 123°02'0 0.0
2018-Apr-03 23:00N 49°09' W 123°02'0 0.0
2018-Apr-03 22:30N 49°09' W 123°02'0 0.0
2018-Apr-03 22:00N 49°09' W 123°02'0 0.0
2018-Apr-03 21:30N 49°09' W 123°02'0 0.0
2018-Apr-03 21:00N 49°09' W 123°02'0 0.0
2018-Apr-03 20:30N 49°09' W 123°02'0 0.0
2018-Apr-03 20:00N 49°09' W 123°02'0 0.0
2018-Apr-03 19:30N 49°09' W 123°02'0 0.0
2018-Apr-03 19:00N 49°09' W 123°02'0 0.0
2018-Apr-03 18:30N 49°09' W 123°02'0 0.0
2018-Apr-03 18:00N 49°09' W 123°02'0 0.0
2018-Apr-03 17:30N 49°09' W 123°02'0 0.0
2018-Apr-03 17:00N 49°09' W 123°02'0 0.0
2018-Apr-03 16:30N 49°09' W 123°02'0 0.0
2018-Apr-03 16:00N 49°09' W 123°02'0 0.0
2018-Apr-03 15:31N 49°09' W 123°02'0 0.2
2018-Apr-03 15:00N 49°09' W 123°02'0 0.0
2018-Apr-03 14:29N 49°09' W 123°02'4 8.2
2018-Apr-03 14:01N 49°07' W 123°07'5 9.4
2018-Apr-03 13:31N 49°08' W 123°14'510.2
2018-Apr-03 13:00N 49°04' W 123°19'612.2
2018-Apr-03 12:31N 48°58' W 123°17'612.8
2018-Apr-03 12:00N 48°51' W 123°19'4 7.8
2018-Apr-03 11:30N 48°48' W 123°20'5 1.9
2018-Apr-03 08:44N 48°42' W 123°21'314.5
2018-Apr-03 08:30N 48°46' W 123°21'611.5
2018-Apr-03 08:00N 48°52' W 123°19'612.8
2018-Apr-03 07:31N 48°58' W 123°20'612.8
2018-Apr-03 07:00N 49°04' W 123°21'713.3
2018-Apr-03 06:30N 49°07' W 123°12'612.6
2018-Apr-03 06:00N 49°09' W 123°03'0 0.6
2018-Apr-03 05:30N 49°09' W 123°02'0 0.0
2018-Apr-03 05:00N 49°09' W 123°02'0 0.1
2018-Apr-03 04:30N 49°09' W 123°02'0 0.0
2018-Apr-03 04:00N 49°09' W 123°02'0 0.0
2018-Apr-03 03:30N 49°09' W 123°02'0 0.0
2018-Apr-03 03:00N 49°09' W 123°02'0 0.0
2018-Apr-03 02:30N 49°09' W 123°02'0 0.0
2018-Apr-03 02:00N 49°09' W 123°02'0 0.0
2018-Apr-03 01:30N 49°09' W 123°02'0 0.0
2018-Apr-03 01:00N 49°09' W 123°02'0 0.0
2018-Apr-03 00:30N 49°09' W 123°02'0 0.0
2018-Apr-03 00:00N 49°09' W 123°02'0 0.0
2018-Apr-02 23:30N 49°09' W 123°02'0 0.0
2018-Apr-02 23:00N 49°09' W 123°02'0 0.0
2018-Apr-02 22:30N 49°09' W 123°02'0 0.0
2018-Apr-02 22:00N 49°09' W 123°02'0 0.0
2018-Apr-02 21:30N 49°09' W 123°02'0 0.0
2018-Apr-02 21:00N 49°09' W 123°02'0 0.0
2018-Apr-02 20:30N 49°09' W 123°02'0 0.0
2018-Apr-02 20:00N 49°09' W 123°02'0 0.0
2018-Apr-02 19:30N 49°09' W 123°02'0 0.0
2018-Apr-02 19:00N 49°09' W 123°02'0 0.0
2018-Apr-02 18:30N 49°09' W 123°02'0 0.0
2018-Apr-02 18:00N 49°09' W 123°02'0 0.0
2018-Apr-02 17:30N 49°09' W 123°02'0 0.0
2018-Apr-02 17:00N 49°09' W 123°02'0 0.0
2018-Apr-02 16:30N 49°09' W 123°02'0 0.0
2018-Apr-02 16:00N 49°09' W 123°02'0 0.0
2018-Apr-02 15:30N 49°09' W 123°02'0 0.0
2018-Apr-02 15:00N 49°09' W 123°02'0 0.0
2018-Apr-02 14:30N 49°09' W 123°02'0 0.0
2018-Apr-02 14:00N 49°09' W 123°02'0 0.0
2018-Apr-02 13:30N 49°09' W 123°02'0 0.0
2018-Apr-02 13:00N 49°09' W 123°02'0 0.0
2018-Apr-02 12:30N 49°09' W 123°02'0 0.0
2018-Apr-02 12:00N 49°09' W 123°02'0 0.0
2018-Apr-02 11:30N 49°09' W 123°02'0 0.0
2018-Apr-02 11:00N 49°09' W 123°02'0 0.0
2018-Apr-02 10:30N 49°09' W 123°02'0 0.0
2018-Apr-02 10:00N 49°09' W 123°02'0 0.0
2018-Apr-02 09:30N 49°09' W 123°02'0 0.0
2018-Apr-02 09:00N 49°09' W 123°02'0 0.0
2018-Apr-02 08:30N 49°09' W 123°02'0 0.0
2018-Apr-02 08:00N 49°09' W 123°02'0 0.0
2018-Apr-02 07:30N 49°09' W 123°02'0 0.0
2018-Apr-02 06:57N 49°09' W 123°02'0 0.0
2018-Apr-02 06:30N 49°09' W 123°02'0 0.0
2018-Apr-02 06:00N 49°09' W 123°02'0 0.0
2018-Apr-02 05:30N 49°09' W 123°02'0 0.0
2018-Apr-02 05:00N 49°09' W 123°02'0 0.0
2018-Apr-02 04:30N 49°09' W 123°02'0 0.0
2018-Apr-02 04:00N 49°09' W 123°02'0 0.0
2018-Apr-02 03:30N 49°09' W 123°02'0 0.0
2018-Apr-02 03:00N 49°09' W 123°02'0 0.0
2018-Apr-02 02:30N 49°09' W 123°02'0 0.0
2018-Apr-02 02:00N 49°09' W 123°02'0 0.0
2018-Apr-02 01:30N 49°09' W 123°02'0 0.0
2018-Apr-02 01:00N 49°09' W 123°02'0 0.0
2018-Apr-02 00:30N 49°09' W 123°02'0 0.0
2018-Apr-02 00:00N 49°09' W 123°02'0 0.0
2018-Apr-01 23:30N 49°09' W 123°02'0 0.0
2018-Apr-01 23:00N 49°09' W 123°02'0 0.0
2018-Apr-01 22:30N 49°09' W 123°02'0 0.0
2018-Apr-01 22:00N 49°09' W 123°02'0 0.0
2018-Apr-01 21:30N 49°09' W 123°02'0 0.0
2018-Apr-01 21:00N 49°09' W 123°02'0 0.0
2018-Apr-01 20:30N 49°09' W 123°02'0 0.0
2018-Apr-01 20:00N 49°09' W 123°02'0 0.0
2018-Apr-01 19:30N 49°09' W 123°02'0 0.0
2018-Apr-01 19:00N 49°09' W 123°02'0 0.0
2018-Apr-01 18:30N 49°09' W 123°02'0 0.0
2018-Apr-01 18:00N 49°09' W 123°02'0 0.0
2018-Apr-01 17:30N 49°09' W 123°02'0 0.0
2018-Apr-01 17:00N 49°09' W 123°02'0 0.0
2018-Apr-01 16:30N 49°09' W 123°02'0 0.0
2018-Apr-01 16:00N 49°09' W 123°02'0 0.0
2018-Apr-01 15:30N 49°09' W 123°02'0 0.0
2018-Apr-01 15:00N 49°09' W 123°02'0 0.0
2018-Apr-01 14:30N 49°09' W 123°02'0 0.0
2018-Apr-01 14:00N 49°09' W 123°02'0 0.0
2018-Apr-01 13:30N 49°09' W 123°02'0 0.0
2018-Apr-01 13:00N 49°09' W 123°02'0 0.0
2018-Apr-01 12:30N 49°09' W 123°02'0 0.0
2018-Apr-01 12:00N 49°09' W 123°02'0 0.0
2018-Apr-01 11:30N 49°09' W 123°02'0 0.0
2018-Apr-01 11:00N 49°09' W 123°02'0 0.0
2018-Apr-01 10:30N 49°09' W 123°02'0 0.0
2018-Apr-01 10:00N 49°09' W 123°02'0 0.0
2018-Apr-01 09:30N 49°09' W 123°02'0 0.0
2018-Apr-01 09:00N 49°09' W 123°02'0 0.0
2018-Apr-01 08:30N 49°09' W 123°02'0 0.0
2018-Apr-01 08:00N 49°09' W 123°02'0 0.0
2018-Apr-01 07:29N 49°09' W 123°02'0 0.0
2018-Apr-01 07:00N 49°09' W 123°02'0 0.0
2018-Apr-01 06:30N 49°09' W 123°02'0 0.0
2018-Apr-01 06:00N 49°09' W 123°02'0 0.0
2018-Apr-01 05:30N 49°09' W 123°02'0 0.0
2018-Apr-01 05:00N 49°09' W 123°02'0 0.0
2018-Apr-01 04:30N 49°09' W 123°02'0 0.0
2018-Apr-01 04:00N 49°09' W 123°02'0 0.0
2018-Apr-01 03:30N 49°09' W 123°02'0 0.0
2018-Apr-01 03:00N 49°09' W 123°02'0 0.0
2018-Apr-01 02:30N 49°09' W 123°02'0 0.0
2018-Apr-01 02:00N 49°09' W 123°02'0 0.0
2018-Apr-01 01:30N 49°09' W 123°02'0 0.0
2018-Apr-01 01:00N 49°09' W 123°02'0 0.0
2018-Apr-01 00:30N 49°09' W 123°02'0 0.0
2018-Apr-01 00:00N 49°09' W 123°02'0 0.0
2018-Mar-31 23:30N 49°09' W 123°02'0 0.0
2018-Mar-31 23:00N 49°09' W 123°02'0 0.0
2018-Mar-31 22:30N 49°09' W 123°02'0 0.0
2018-Mar-31 22:00N 49°09' W 123°02'0 0.0
2018-Mar-31 21:30N 49°09' W 123°02'0 0.0
2018-Mar-31 21:00N 49°09' W 123°02'0 0.0
2018-Mar-31 20:30N 49°09' W 123°02'0 0.0
2018-Mar-31 20:00N 49°09' W 123°02'0 0.0
2018-Mar-31 19:30N 49°09' W 123°02'0 0.0
2018-Mar-31 19:00N 49°09' W 123°02'0 0.0
2018-Mar-31 18:30N 49°09' W 123°02'0 0.0
2018-Mar-31 18:00N 49°09' W 123°02'0 0.0
2018-Mar-31 17:30N 49°09' W 123°02'0 0.0
2018-Mar-31 17:00N 49°09' W 123°02'0 0.0
2018-Mar-31 16:30N 49°09' W 123°02'0 0.0
2018-Mar-31 16:00N 49°09' W 123°02'0 0.0
2018-Mar-31 15:30N 49°09' W 123°02'0 0.0
2018-Mar-31 15:00N 49°09' W 123°02'0 0.0
2018-Mar-31 14:30N 49°09' W 123°02'0 0.0
2018-Mar-31 14:00N 49°09' W 123°02'0 0.0
2018-Mar-31 13:30N 49°09' W 123°02'0 0.0
2018-Mar-31 13:00N 49°09' W 123°02'0 0.0
2018-Mar-31 12:30N 49°09' W 123°02'0 0.0
2018-Mar-31 12:00N 49°09' W 123°02'0 0.0
2018-Mar-31 11:30N 49°09' W 123°02'0 0.0
2018-Mar-31 11:00N 49°09' W 123°02'0 0.0
2018-Mar-31 10:30N 49°09' W 123°02'0 0.0
2018-Mar-31 10:00N 49°09' W 123°02'0 0.0
2018-Mar-31 09:30N 49°09' W 123°02'0 0.0
2018-Mar-31 09:00N 49°09' W 123°02'0 0.0
2018-Mar-31 08:30N 49°09' W 123°02'0 0.0
2018-Mar-31 08:00N 49°09' W 123°02'0 0.0
2018-Mar-31 07:30N 49°09' W 123°02'0 0.0
2018-Mar-31 07:00N 49°09' W 123°02'0 0.0
2018-Mar-31 06:30N 49°09' W 123°02'0 0.0
2018-Mar-31 06:00N 49°09' W 123°02'0 0.0
2018-Mar-31 05:30N 49°09' W 123°02'0 0.0
2018-Mar-31 05:00N 49°09' W 123°02'0 0.0
2018-Mar-31 04:30N 49°09' W 123°02'0 0.0
2018-Mar-31 04:00N 49°09' W 123°02'0 0.0
2018-Mar-31 03:30N 49°09' W 123°02'0 0.0
2018-Mar-31 03:00N 49°09' W 123°02'0 0.0
2018-Mar-31 02:29N 49°09' W 123°02'0 0.0
2018-Mar-31 02:00N 49°09' W 123°02'0 0.0
2018-Mar-31 01:30N 49°09' W 123°02'0 0.0
2018-Mar-31 01:00N 49°09' W 123°02'0 0.0
2018-Mar-31 00:30N 49°09' W 123°02'0 0.0
2018-Mar-31 00:01N 49°09' W 123°02'0 0.0
2018-Mar-30 23:31N 49°09' W 123°02'0 0.0
2018-Mar-30 23:00N 49°09' W 123°02'0 0.0
2018-Mar-30 22:31N 49°09' W 123°02'0 0.0
2018-Mar-30 22:00N 49°09' W 123°02'0 0.0
2018-Mar-30 21:30N 49°09' W 123°02'0 0.0
2018-Mar-30 21:00N 49°09' W 123°02'0 0.0
2018-Mar-30 20:31N 49°09' W 123°02'0 0.0
2018-Mar-30 20:00N 49°09' W 123°02'0 0.0
2018-Mar-30 19:30N 49°09' W 123°02'0 0.0
2018-Mar-30 19:00N 49°09' W 123°02'0 0.0
2018-Mar-30 18:30N 49°09' W 123°02'0 0.0
2018-Mar-30 18:00N 49°09' W 123°02'0 0.0
2018-Mar-30 17:30N 49°09' W 123°02'0 0.0
2018-Mar-30 17:00N 49°09' W 123°02'0 0.0
2018-Mar-30 16:30N 49°09' W 123°02'0 0.0
2018-Mar-30 15:59N 49°09' W 123°02'0 0.0
2018-Mar-30 15:31N 49°09' W 123°02'0 0.3
2018-Mar-30 15:01N 49°09' W 123°02'0 0.4
2018-Mar-30 14:30N 49°09' W 123°02'510.2
2018-Mar-30 13:59N 49°07' W 123°10'5 9.7
2018-Mar-30 13:30N 49°07' W 123°17'5 9.7
2018-Mar-30 13:00N 49°02' W 123°19'611.5
2018-Mar-30 12:29N 48°56' W 123°19'510.0
2018-Mar-30 12:00N 48°52' W 123°20'4 7.9
2018-Mar-30 11:29N 48°47' W 123°20'6 2.2
2018-Mar-30 08:49N 48°42' W 123°23'412.3
2018-Mar-30 08:28N 48°46' W 123°21'612.2
2018-Mar-30 08:00N 48°52' W 123°21'5 9.2
2018-Mar-30 07:30N 48°56' W 123°18'713.4
2018-Mar-30 07:00N 49°02' W 123°19'612.8
2018-Mar-30 06:30N 49°08' W 123°14'714.6
2018-Mar-30 06:00N 49°09' W 123°03'1 1.2
2018-Mar-30 05:30N 49°09' W 123°02'0 0.0
2018-Mar-30 05:00N 49°09' W 123°02'0 0.0
2018-Mar-30 04:31N 49°09' W 123°02'0 0.1
2018-Mar-30 04:00N 49°09' W 123°02'0 0.0
2018-Mar-30 03:30N 49°09' W 123°02'0 0.0
2018-Mar-30 03:00N 49°09' W 123°02'0 0.0
2018-Mar-30 02:30N 49°09' W 123°02'0 0.0
2018-Mar-30 02:00N 49°09' W 123°02'0 0.0
2018-Mar-30 01:30N 49°09' W 123°02'0 0.0
2018-Mar-30 01:00N 49°09' W 123°02'0 0.0
2018-Mar-30 00:30N 49°09' W 123°02'0 0.0
2018-Mar-30 00:00N 49°09' W 123°02'0 0.0
2018-Mar-29 23:30N 49°09' W 123°02'0 0.0
2018-Mar-29 23:00N 49°09' W 123°02'0 0.0
2018-Mar-29 22:30N 49°09' W 123°02'0 0.0
2018-Mar-29 22:01N 49°09' W 123°02'0 0.0
2018-Mar-29 21:30N 49°09' W 123°02'0 0.0
2018-Mar-29 21:00N 49°09' W 123°02'0 0.0
2018-Mar-29 20:30N 49°09' W 123°02'0 0.0
2018-Mar-29 20:00N 49°09' W 123°02'0 0.0
2018-Mar-29 19:31N 49°09' W 123°02'0 0.0
2018-Mar-29 19:00N 49°09' W 123°02'0 0.0
2018-Mar-29 18:31N 49°09' W 123°02'0 0.0
2018-Mar-29 18:00N 49°09' W 123°02'0 0.0
2018-Mar-29 17:30N 49°09' W 123°02'0 0.0
2018-Mar-29 17:00N 49°09' W 123°02'0 0.0
2018-Mar-29 16:30N 49°09' W 123°02'0 0.0
2018-Mar-29 16:00N 49°09' W 123°02'0 0.3
2018-Mar-29 15:30N 49°09' W 123°02'0 0.1
2018-Mar-29 15:01N 49°09' W 123°02'0 0.1
2018-Mar-29 14:30N 49°09' W 123°02'510.0
2018-Mar-29 14:00N 49°07' W 123°09'510.7
2018-Mar-29 13:30N 49°07' W 123°17'5 9.6
2018-Mar-29 13:00N 49°02' W 123°20'612.0
2018-Mar-29 12:30N 48°56' W 123°18'5 9.5
2018-Mar-29 12:00N 48°52' W 123°21'4 8.7
2018-Mar-29 11:30N 48°47' W 123°20'510.9
2018-Mar-29 11:00N 48°42' W 123°24'1 0.7
2018-Mar-29 09:03N 48°42' W 123°22'114.2
2018-Mar-29 09:00N 48°43' W 123°21'713.7
2018-Mar-29 08:31N 48°49' W 123°21'5 9.1
2018-Mar-29 08:00N 48°54' W 123°18'713.3
2018-Mar-29 07:31N 48°60' W 123°22'5 9.9
2018-Mar-29 07:00N 49°05' W 123°20'611.9
2018-Mar-29 06:30N 49°08' W 123°13'612.3
2018-Mar-29 06:00N 49°08' W 123°03'1 1.8
2018-Mar-29 05:30N 49°09' W 123°02'0 0.0
2018-Mar-29 05:00N 49°09' W 123°02'0 0.1
2018-Mar-29 04:30N 49°09' W 123°02'0 0.0
2018-Mar-29 04:00N 49°09' W 123°02'0 0.0
2018-Mar-29 03:30N 49°09' W 123°02'0 0.0
2018-Mar-29 03:00N 49°09' W 123°02'0 0.0
2018-Mar-29 02:30N 49°09' W 123°02'0 0.0
2018-Mar-29 02:00N 49°09' W 123°02'0 0.0
2018-Mar-29 01:30N 49°09' W 123°02'0 0.0
2018-Mar-29 01:00N 49°09' W 123°02'0 0.0
2018-Mar-29 00:30N 49°09' W 123°02'0 0.0
2018-Mar-29 00:00N 49°09' W 123°02'0 0.0
2018-Mar-28 23:30N 49°09' W 123°02'0 0.0
2018-Mar-28 23:00N 49°09' W 123°02'0 0.0
2018-Mar-28 22:30N 49°09' W 123°02'0 0.0
2018-Mar-28 22:00N 49°09' W 123°02'0 0.0
2018-Mar-28 21:30N 49°09' W 123°02'0 0.0
2018-Mar-28 21:00N 49°09' W 123°02'0 0.0
2018-Mar-28 20:30N 49°09' W 123°02'0 0.0
2018-Mar-28 20:00N 49°09' W 123°02'0 0.0
2018-Mar-28 19:30N 49°09' W 123°02'0 0.0
2018-Mar-28 19:00N 49°09' W 123°02'0 0.0
2018-Mar-28 18:30N 49°09' W 123°02'0 0.0
2018-Mar-28 18:00N 49°09' W 123°02'0 0.0
2018-Mar-28 17:30N 49°09' W 123°02'0 0.0
2018-Mar-28 17:00N 49°09' W 123°02'0 0.0
2018-Mar-28 16:30N 49°09' W 123°02'  
Track history (hours):
 
Tides and Currents Weather Stations Pressure Air Temp Water Temp Dewpoint Dewpoint Depression Visibility Wind Speed Wind Dir Waves Ship Positions

Carrier Princess

Last reported at 2018-Apr-07 16:08 UTC. Time now 2018-Apr-26 00:20 UTC.
Position N 49°10' W 123°35'.
Warning: this ship's position is 18 days out of date.

Length 112 m; draft 3 m.

Type: Cargo ship. MMSI: 316003656.

Date/timePositionNaut miles runAvg speedWind from/ knotsBaromVisibWave heightAir tempDewpointWater temp
2018-Apr-07 16:08N 49°10' W 123°35'213.2
2018-Apr-07 15:57N 49°10' W 123°32'813.3
2018-Apr-07 15:21N 49°06' W 123°20'512.9
2018-Apr-07 14:59N 49°08' W 123°13'714.8
2018-Apr-07 14:30N 49°09' W 123°03'1 1.1
2018-Apr-07 14:00N 49°09' W 123°02'0 0.0
2018-Apr-07 13:30N 49°09' W 123°02'3 5.9
2018-Apr-07 13:00N 49°07' W 123°06'612.1
2018-Apr-07 12:28N 49°07' W 123°15'510.3
2018-Apr-07 11:59N 49°03' W 123°20'913.8
2018-Apr-07 11:20N 48°55' W 123°18'411.7
2018-Apr-07 11:00N 48°51' W 123°21'815.0
2018-Apr-07 10:30N 48°44' W 123°23'3 1.5
2018-Apr-07 08:48N 48°42' W 123°24'612.5
2018-Apr-07 08:19N 48°47' W 123°21'512.1
2018-Apr-07 07:54N 48°52' W 123°18'614.6
2018-Apr-07 07:28N 48°58' W 123°20'612.7
2018-Apr-07 07:00N 49°04' W 123°21'713.0
2018-Apr-07 06:30N 49°07' W 123°12'612.2
2018-Apr-07 06:00N 49°08' W 123°03'1 1.7
2018-Apr-07 05:30N 49°09' W 123°02'0 0.0
2018-Apr-07 05:00N 49°09' W 123°02'0 0.0
2018-Apr-07 04:29N 49°09' W 123°02'0 0.1
2018-Apr-07 04:00N 49°09' W 123°02'0 0.0
2018-Apr-07 03:30N 49°09' W 123°02'0 0.0
2018-Apr-07 03:00N 49°09' W 123°02'0 0.0
2018-Apr-07 02:30N 49°09' W 123°02'0 0.0
2018-Apr-07 02:00N 49°09' W 123°02'0 0.0
2018-Apr-07 01:30N 49°09' W 123°02'0 0.0
2018-Apr-07 01:00N 49°09' W 123°02'0 0.0
2018-Apr-07 00:30N 49°09' W 123°02'0 0.0
2018-Apr-07 00:00N 49°09' W 123°02'0 0.0
2018-Apr-06 23:29N 49°09' W 123°02'0 0.0
2018-Apr-06 23:00N 49°09' W 123°02'0 0.0
2018-Apr-06 22:30N 49°09' W 123°02'0 0.0
2018-Apr-06 22:00N 49°09' W 123°02'0 0.0
2018-Apr-06 21:30N 49°09' W 123°02'0 0.0
2018-Apr-06 21:00N 49°09' W 123°02'0 0.0
2018-Apr-06 20:30N 49°09' W 123°02'0 0.0
2018-Apr-06 20:00N 49°09' W 123°02'0 0.0
2018-Apr-06 19:30N 49°09' W 123°02'0 0.0
2018-Apr-06 19:00N 49°09' W 123°02'0 0.0
2018-Apr-06 18:30N 49°09' W 123°02'0 0.0
2018-Apr-06 18:01N 49°09' W 123°02'0 0.0
2018-Apr-06 17:30N 49°09' W 123°02'0 0.0
2018-Apr-06 17:00N 49°09' W 123°02'0 0.0
2018-Apr-06 16:30N 49°09' W 123°02'0 0.0
2018-Apr-06 16:00N 49°09' W 123°02'0 0.3
2018-Apr-06 15:30N 49°09' W 123°02'0 0.0
2018-Apr-06 14:59N 49°09' W 123°02'0 0.1
2018-Apr-06 14:30N 49°09' W 123°02'5 9.4
2018-Apr-06 14:00N 49°06' W 123°09'5 9.5
2018-Apr-06 13:30N 49°07' W 123°16'5 9.4
2018-Apr-06 13:01N 49°03' W 123°18'611.4
2018-Apr-06 12:31N 48°57' W 123°17'611.5
2018-Apr-06 12:00N 48°52' W 123°19'4 8.3
2018-Apr-06 11:31N 48°48' W 123°20'5 1.7
2018-Apr-06 08:40N 48°43' W 123°21'315.4
2018-Apr-06 08:29N 48°45' W 123°21'612.7
2018-Apr-06 08:00N 48°52' W 123°19'713.5
2018-Apr-06 07:30N 48°58' W 123°20'713.6
2018-Apr-06 07:00N 49°05' W 123°20'612.7
2018-Apr-06 06:30N 49°07' W 123°11'611.3
2018-Apr-06 06:00N 49°09' W 123°02'0 0.3
2018-Apr-06 05:30N 49°09' W 123°02'0 0.0
2018-Apr-06 05:00N 49°09' W 123°02'0 0.3
2018-Apr-06 04:30N 49°09' W 123°02'0 0.0
2018-Apr-06 04:00N 49°09' W 123°02'0 0.0
2018-Apr-06 03:30N 49°09' W 123°02'0 0.0
2018-Apr-06 03:00N 49°09' W 123°02'0 0.0
2018-Apr-06 02:30N 49°09' W 123°02'0 0.0
2018-Apr-06 02:00N 49°09' W 123°02'0 0.0
2018-Apr-06 01:30N 49°09' W 123°02'0 0.0
2018-Apr-06 01:00N 49°09' W 123°02'0 0.0
2018-Apr-06 00:30N 49°09' W 123°02'0 0.0
2018-Apr-06 00:00N 49°09' W 123°02'0 0.0
2018-Apr-05 23:30N 49°09' W 123°02'0 0.0
2018-Apr-05 23:00N 49°09' W 123°02'0 0.0
2018-Apr-05 22:30N 49°09' W 123°02'0 0.0
2018-Apr-05 22:00N 49°09' W 123°02'0 0.0
2018-Apr-05 21:30N 49°09' W 123°02'0 0.0
2018-Apr-05 21:00N 49°09' W 123°02'0 0.0
2018-Apr-05 20:30N 49°09' W 123°02'0 0.0
2018-Apr-05 20:00N 49°09' W 123°02'0 0.0
2018-Apr-05 19:30N 49°09' W 123°02'0 0.0
2018-Apr-05 19:00N 49°09' W 123°02'0 0.0
2018-Apr-05 18:30N 49°09' W 123°02'0 0.0
2018-Apr-05 18:00N 49°09' W 123°02'0 0.0
2018-Apr-05 17:30N 49°09' W 123°02'0 0.0
2018-Apr-05 17:00N 49°09' W 123°02'0 0.0
2018-Apr-05 16:30N 49°09' W 123°02'0 0.0
2018-Apr-05 16:00N 49°09' W 123°02'0 0.3
2018-Apr-05 15:30N 49°09' W 123°02'0 0.0
2018-Apr-05 15:00N 49°09' W 123°02'0 0.0
2018-Apr-05 14:30N 49°09' W 123°02'5 9.6
2018-Apr-05 14:00N 49°07' W 123°09'5 9.7
2018-Apr-05 13:30N 49°07' W 123°16'510.2
2018-Apr-05 12:59N 49°02' W 123°19'611.7
2018-Apr-05 12:30N 48°57' W 123°18'510.6
2018-Apr-05 12:00N 48°51' W 123°20'4 8.8
2018-Apr-05 11:30N 48°47' W 123°21'5 9.6
2018-Apr-05 11:00N 48°43' W 123°24'1 0.7
2018-Apr-05 08:59N 48°41' W 123°24'510.2
2018-Apr-05 08:31N 48°46' W 123°21'612.2
2018-Apr-05 08:01N 48°52' W 123°19'714.0
2018-Apr-05 07:30N 48°59' W 123°19'714.0
2018-Apr-05 07:00N 49°06' W 123°20'612.3
2018-Apr-05 06:30N 49°07' W 123°10'611.2
2018-Apr-05 06:00N 49°09' W 123°02'0 0.2
2018-Apr-05 05:30N 49°09' W 123°02'0 0.0
2018-Apr-05 05:00N 49°09' W 123°02'0 0.1
2018-Apr-05 04:30N 49°09' W 123°02'0 0.2
2018-Apr-05 04:00N 49°09' W 123°02'0 0.0
2018-Apr-05 03:30N 49°09' W 123°02'0 0.0
2018-Apr-05 03:00N 49°09' W 123°02'0 0.0
2018-Apr-05 02:30N 49°09' W 123°02'0 0.0
2018-Apr-05 02:00N 49°09' W 123°02'0 0.0
2018-Apr-05 01:30N 49°09' W 123°02'0 0.0
2018-Apr-05 01:00N 49°09' W 123°02'0 0.0
2018-Apr-05 00:30N 49°09' W 123°02'0 0.0
2018-Apr-05 00:00N 49°09' W 123°02'0 0.0
2018-Apr-04 23:30N 49°09' W 123°02'0 0.0
2018-Apr-04 23:00N 49°09' W 123°02'0 0.0
2018-Apr-04 22:30N 49°09' W 123°02'0 0.0
2018-Apr-04 22:00N 49°09' W 123°02'0 0.0
2018-Apr-04 21:30N 49°09' W 123°02'0 0.0
2018-Apr-04 21:00N 49°09' W 123°02'0 0.0
2018-Apr-04 20:30N 49°09' W 123°02'0 0.0
2018-Apr-04 20:00N 49°09' W 123°02'0 0.0
2018-Apr-04 19:30N 49°09' W 123°02'0 0.0
2018-Apr-04 19:00N 49°09' W 123°02'0 0.0
2018-Apr-04 18:30N 49°09' W 123°02'0 0.0
2018-Apr-04 18:00N 49°09' W 123°02'0 0.0
2018-Apr-04 17:30N 49°09' W 123°02'0 0.0
2018-Apr-04 17:00N 49°09' W 123°02'0 0.0
2018-Apr-04 16:30N 49°09' W 123°02'0 0.0
2018-Apr-04 16:00N 49°09' W 123°02'0 0.1
2018-Apr-04 15:30N 49°09' W 123°02'0 0.2
2018-Apr-04 15:00N 49°09' W 123°02'0 0.0
2018-Apr-04 14:30N 49°09' W 123°02'5 9.2
2018-Apr-04 14:00N 49°06' W 123°09'5 9.9
2018-Apr-04 13:30N 49°07' W 123°16'510.0
2018-Apr-04 13:00N 49°03' W 123°20'612.0
2018-Apr-04 12:30N 48°57' W 123°19'510.7
2018-Apr-04 12:00N 48°52' W 123°20'4 9.0
2018-Apr-04 11:30N 48°47' W 123°20'610.8
2018-Apr-04 10:57N 48°42' W 123°25'0 0.2
2018-Apr-04 09:00N 48°41' W 123°24'510.5
2018-Apr-04 08:30N 48°46' W 123°21'511.0
2018-Apr-04 08:00N 48°52' W 123°19'612.9
2018-Apr-04 07:30N 48°58' W 123°19'714.7
2018-Apr-04 07:00N 49°05' W 123°20'712.7
2018-Apr-04 06:29N 49°07' W 123°10'510.8
2018-Apr-04 06:00N 49°09' W 123°02'0 0.0
2018-Apr-04 05:30N 49°09' W 123°02'0 0.0
2018-Apr-04 05:00N 49°09' W 123°02'0 0.3
2018-Apr-04 04:30N 49°09' W 123°02'0 0.0
2018-Apr-04 04:00N 49°09' W 123°02'0 0.0
2018-Apr-04 03:30N 49°09' W 123°02'0 0.0
2018-Apr-04 03:00N 49°09' W 123°02'0 0.0
2018-Apr-04 02:30N 49°09' W 123°02'0 0.0
2018-Apr-04 02:00N 49°09' W 123°02'0 0.0
2018-Apr-04 01:30N 49°09' W 123°02'0 0.0
2018-Apr-04 01:00N 49°09' W 123°02'0 0.0
2018-Apr-04 00:30N 49°09' W 123°02'0 0.0
2018-Apr-04 00:00N 49°09' W 123°02'0 0.0
2018-Apr-03 23:30N 49°09' W 123°02'0 0.0
2018-Apr-03 23:00N 49°09' W 123°02'0 0.0
2018-Apr-03 22:30N 49°09' W 123°02'0 0.0
2018-Apr-03 22:00N 49°09' W 123°02'0 0.0
2018-Apr-03 21:30N 49°09' W 123°02'0 0.0
2018-Apr-03 21:00N 49°09' W 123°02'0 0.0
2018-Apr-03 20:30N 49°09' W 123°02'0 0.0
2018-Apr-03 20:00N 49°09' W 123°02'0 0.0
2018-Apr-03 19:30N 49°09' W 123°02'0 0.0
2018-Apr-03 19:00N 49°09' W 123°02'0 0.0
2018-Apr-03 18:30N 49°09' W 123°02'0 0.0
2018-Apr-03 18:00N 49°09' W 123°02'0 0.0
2018-Apr-03 17:30N 49°09' W 123°02'0 0.0
2018-Apr-03 17:00N 49°09' W 123°02'0 0.0
2018-Apr-03 16:30N 49°09' W 123°02'0 0.0
2018-Apr-03 16:00N 49°09' W 123°02'0 0.0
2018-Apr-03 15:31N 49°09' W 123°02'0 0.2
2018-Apr-03 15:00N 49°09' W 123°02'0 0.0
2018-Apr-03 14:29N 49°09' W 123°02'4 8.2
2018-Apr-03 14:01N 49°07' W 123°07'5 9.4
2018-Apr-03 13:31N 49°08' W 123°14'510.2
2018-Apr-03 13:00N 49°04' W 123°19'612.2
2018-Apr-03 12:31N 48°58' W 123°17'612.8
2018-Apr-03 12:00N 48°51' W 123°19'4 7.8
2018-Apr-03 11:30N 48°48' W 123°20'5 1.9
2018-Apr-03 08:44N 48°42' W 123°21'314.5
2018-Apr-03 08:30N 48°46' W 123°21'611.5
2018-Apr-03 08:00N 48°52' W 123°19'612.8
2018-Apr-03 07:31N 48°58' W 123°20'612.8
2018-Apr-03 07:00N 49°04' W 123°21'713.3
2018-Apr-03 06:30N 49°07' W 123°12'612.6
2018-Apr-03 06:00N 49°09' W 123°03'0 0.6
2018-Apr-03 05:30N 49°09' W 123°02'0 0.0
2018-Apr-03 05:00N 49°09' W 123°02'0 0.1
2018-Apr-03 04:30N 49°09' W 123°02'0 0.0
2018-Apr-03 04:00N 49°09' W 123°02'0 0.0
2018-Apr-03 03:30N 49°09' W 123°02'0 0.0
2018-Apr-03 03:00N 49°09' W 123°02'0 0.0
2018-Apr-03 02:30N 49°09' W 123°02'0 0.0
2018-Apr-03 02:00N 49°09' W 123°02'0 0.0
2018-Apr-03 01:30N 49°09' W 123°02'0 0.0
2018-Apr-03 01:00N 49°09' W 123°02'0 0.0
2018-Apr-03 00:30N 49°09' W 123°02'0 0.0
2018-Apr-03 00:00N 49°09' W 123°02'0 0.0
2018-Apr-02 23:30N 49°09' W 123°02'0 0.0
2018-Apr-02 23:00N 49°09' W 123°02'0 0.0
2018-Apr-02 22:30N 49°09' W 123°02'0 0.0
2018-Apr-02 22:00N 49°09' W 123°02'0 0.0
2018-Apr-02 21:30N 49°09' W 123°02'0 0.0
2018-Apr-02 21:00N 49°09' W 123°02'0 0.0
2018-Apr-02 20:30N 49°09' W 123°02'0 0.0
2018-Apr-02 20:00N 49°09' W 123°02'0 0.0
2018-Apr-02 19:30N 49°09' W 123°02'0 0.0
2018-Apr-02 19:00N 49°09' W 123°02'0 0.0
2018-Apr-02 18:30N 49°09' W 123°02'0 0.0
2018-Apr-02 18:00N 49°09' W 123°02'0 0.0
2018-Apr-02 17:30N 49°09' W 123°02'0 0.0
2018-Apr-02 17:00N 49°09' W 123°02'0 0.0
2018-Apr-02 16:30N 49°09' W 123°02'0 0.0
2018-Apr-02 16:00N 49°09' W 123°02'0 0.0
2018-Apr-02 15:30N 49°09' W 123°02'0 0.0
2018-Apr-02 15:00N 49°09' W 123°02'0 0.0
2018-Apr-02 14:30N 49°09' W 123°02'0 0.0
2018-Apr-02 14:00N 49°09' W 123°02'0 0.0
2018-Apr-02 13:30N 49°09' W 123°02'0 0.0
2018-Apr-02 13:00N 49°09' W 123°02'0 0.0
2018-Apr-02 12:30N 49°09' W 123°02'0 0.0
2018-Apr-02 12:00N 49°09' W 123°02'0 0.0
2018-Apr-02 11:30N 49°09' W 123°02'0 0.0
2018-Apr-02 11:00N 49°09' W 123°02'0 0.0
2018-Apr-02 10:30N 49°09' W 123°02'0 0.0
2018-Apr-02 10:00N 49°09' W 123°02'0 0.0
2018-Apr-02 09:30N 49°09' W 123°02'0 0.0
2018-Apr-02 09:00N 49°09' W 123°02'0 0.0
2018-Apr-02 08:30N 49°09' W 123°02'0 0.0
2018-Apr-02 08:00N 49°09' W 123°02'0 0.0
2018-Apr-02 07:30N 49°09' W 123°02'0 0.0
2018-Apr-02 06:57N 49°09' W 123°02'0 0.0
2018-Apr-02 06:30N 49°09' W 123°02'0 0.0
2018-Apr-02 06:00N 49°09' W 123°02'0 0.0
2018-Apr-02 05:30N 49°09' W 123°02'0 0.0
2018-Apr-02 05:00N 49°09' W 123°02'0 0.0
2018-Apr-02 04:30N 49°09' W 123°02'0 0.0
2018-Apr-02 04:00N 49°09' W 123°02'0 0.0
2018-Apr-02 03:30N 49°09' W 123°02'0 0.0
2018-Apr-02 03:00N 49°09' W 123°02'0 0.0
2018-Apr-02 02:30N 49°09' W 123°02'0 0.0
2018-Apr-02 02:00N 49°09' W 123°02'0 0.0
2018-Apr-02 01:30N 49°09' W 123°02'0 0.0
2018-Apr-02 01:00N 49°09' W 123°02'0 0.0
2018-Apr-02 00:30N 49°09' W 123°02'0 0.0
2018-Apr-02 00:00N 49°09' W 123°02'0 0.0
2018-Apr-01 23:30N 49°09' W 123°02'0 0.0
2018-Apr-01 23:00N 49°09' W 123°02'0 0.0
2018-Apr-01 22:30N 49°09' W 123°02'0 0.0
2018-Apr-01 22:00N 49°09' W 123°02'0 0.0
2018-Apr-01 21:30N 49°09' W 123°02'0 0.0
2018-Apr-01 21:00N 49°09' W 123°02'0 0.0
2018-Apr-01 20:30N 49°09' W 123°02'0 0.0
2018-Apr-01 20:00N 49°09' W 123°02'0 0.0
2018-Apr-01 19:30N 49°09' W 123°02'0 0.0
2018-Apr-01 19:00N 49°09' W 123°02'0 0.0
2018-Apr-01 18:30N 49°09' W 123°02'0 0.0
2018-Apr-01 18:00N 49°09' W 123°02'0 0.0
2018-Apr-01 17:30N 49°09' W 123°02'0 0.0
2018-Apr-01 17:00N 49°09' W 123°02'0 0.0
2018-Apr-01 16:30N 49°09' W 123°02'0 0.0
2018-Apr-01 16:00N 49°09' W 123°02'0 0.0
2018-Apr-01 15:30N 49°09' W 123°02'0 0.0
2018-Apr-01 15:00N 49°09' W 123°02'0 0.0
2018-Apr-01 14:30N 49°09' W 123°02'0 0.0
2018-Apr-01 14:00N 49°09' W 123°02'0 0.0
2018-Apr-01 13:30N 49°09' W 123°02'0 0.0
2018-Apr-01 13:00N 49°09' W 123°02'0 0.0
2018-Apr-01 12:30N 49°09' W 123°02'0 0.0
2018-Apr-01 12:00N 49°09' W 123°02'0 0.0
2018-Apr-01 11:30N 49°09' W 123°02'0 0.0
2018-Apr-01 11:00N 49°09' W 123°02'0 0.0
2018-Apr-01 10:30N 49°09' W 123°02'0 0.0
2018-Apr-01 10:00N 49°09' W 123°02'0 0.0
2018-Apr-01 09:30N 49°09' W 123°02'0 0.0
2018-Apr-01 09:00N 49°09' W 123°02'0 0.0
2018-Apr-01 08:30N 49°09' W 123°02'0 0.0
2018-Apr-01 08:00N 49°09' W 123°02'0 0.0
2018-Apr-01 07:29N 49°09' W 123°02'0 0.0
2018-Apr-01 07:00N 49°09' W 123°02'0 0.0
2018-Apr-01 06:30N 49°09' W 123°02'0 0.0
2018-Apr-01 06:00N 49°09' W 123°02'0 0.0
2018-Apr-01 05:30N 49°09' W 123°02'0 0.0
2018-Apr-01 05:00N 49°09' W 123°02'0 0.0
2018-Apr-01 04:30N 49°09' W 123°02'0 0.0
2018-Apr-01 04:00N 49°09' W 123°02'0 0.0
2018-Apr-01 03:30N 49°09' W 123°02'0 0.0
2018-Apr-01 03:00N 49°09' W 123°02'0 0.0
2018-Apr-01 02:30N 49°09' W 123°02'0 0.0
2018-Apr-01 02:00N 49°09' W 123°02'0 0.0
2018-Apr-01 01:30N 49°09' W 123°02'0 0.0
2018-Apr-01 01:00N 49°09' W 123°02'0 0.0
2018-Apr-01 00:30N 49°09' W 123°02'0 0.0
2018-Apr-01 00:00N 49°09' W 123°02'0 0.0
2018-Mar-31 23:30N 49°09' W 123°02'0 0.0
2018-Mar-31 23:00N 49°09' W 123°02'0 0.0
2018-Mar-31 22:30N 49°09' W 123°02'0 0.0
2018-Mar-31 22:00N 49°09' W 123°02'0 0.0
2018-Mar-31 21:30N 49°09' W 123°02'0 0.0
2018-Mar-31 21:00N 49°09' W 123°02'0 0.0
2018-Mar-31 20:30N 49°09' W 123°02'0 0.0
2018-Mar-31 20:00N 49°09' W 123°02'0 0.0
2018-Mar-31 19:30N 49°09' W 123°02'0 0.0
2018-Mar-31 19:00N 49°09' W 123°02'0 0.0
2018-Mar-31 18:30N 49°09' W 123°02'0 0.0
2018-Mar-31 18:00N 49°09' W 123°02'0 0.0
2018-Mar-31 17:30N 49°09' W 123°02'0 0.0
2018-Mar-31 17:00N 49°09' W 123°02'0 0.0
2018-Mar-31 16:30N 49°09' W 123°02'0 0.0
2018-Mar-31 16:00N 49°09' W 123°02'0 0.0
2018-Mar-31 15:30N 49°09' W 123°02'0 0.0
2018-Mar-31 15:00N 49°09' W 123°02'0 0.0
2018-Mar-31 14:30N 49°09' W 123°02'0 0.0
2018-Mar-31 14:00N 49°09' W 123°02'0 0.0
2018-Mar-31 13:30N 49°09' W 123°02'0 0.0
2018-Mar-31 13:00N 49°09' W 123°02'0 0.0
2018-Mar-31 12:30N 49°09' W 123°02'0 0.0
2018-Mar-31 12:00N 49°09' W 123°02'0 0.0
2018-Mar-31 11:30N 49°09' W 123°02'0 0.0
2018-Mar-31 11:00N 49°09' W 123°02'0 0.0
2018-Mar-31 10:30N 49°09' W 123°02'0 0.0
2018-Mar-31 10:00N 49°09' W 123°02'0 0.0
2018-Mar-31 09:30N 49°09' W 123°02'0 0.0
2018-Mar-31 09:00N 49°09' W 123°02'0 0.0
2018-Mar-31 08:30N 49°09' W 123°02'0 0.0
2018-Mar-31 08:00N 49°09' W 123°02'0 0.0
2018-Mar-31 07:30N 49°09' W 123°02'0 0.0
2018-Mar-31 07:00N 49°09' W 123°02'0 0.0
2018-Mar-31 06:30N 49°09' W 123°02'0 0.0
2018-Mar-31 06:00N 49°09' W 123°02'0 0.0
2018-Mar-31 05:30N 49°09' W 123°02'0 0.0
2018-Mar-31 05:00N 49°09' W 123°02'0 0.0
2018-Mar-31 04:30N 49°09' W 123°02'0 0.0
2018-Mar-31 04:00N 49°09' W 123°02'0 0.0
2018-Mar-31 03:30N 49°09' W 123°02'0 0.0
2018-Mar-31 03:00N 49°09' W 123°02'0 0.0
2018-Mar-31 02:29N 49°09' W 123°02'0 0.0
2018-Mar-31 02:00N 49°09' W 123°02'0 0.0
2018-Mar-31 01:30N 49°09' W 123°02'0 0.0
2018-Mar-31 01:00N 49°09' W 123°02'0 0.0
2018-Mar-31 00:30N 49°09' W 123°02'0 0.0
2018-Mar-31 00:01N 49°09' W 123°02'0 0.0
2018-Mar-30 23:31N 49°09' W 123°02'0 0.0
2018-Mar-30 23:00N 49°09' W 123°02'0 0.0
2018-Mar-30 22:31N 49°09' W 123°02'0 0.0
2018-Mar-30 22:00N 49°09' W 123°02'0 0.0
2018-Mar-30 21:30N 49°09' W 123°02'0 0.0
2018-Mar-30 21:00N 49°09' W 123°02'0 0.0
2018-Mar-30 20:31N 49°09' W 123°02'0 0.0
2018-Mar-30 20:00N 49°09' W 123°02'0 0.0
2018-Mar-30 19:30N 49°09' W 123°02'0 0.0
2018-Mar-30 19:00N 49°09' W 123°02'0 0.0
2018-Mar-30 18:30N 49°09' W 123°02'0 0.0
2018-Mar-30 18:00N 49°09' W 123°02'0 0.0
2018-Mar-30 17:30N 49°09' W 123°02'0 0.0
2018-Mar-30 17:00N 49°09' W 123°02'0 0.0
2018-Mar-30 16:30N 49°09' W 123°02'0 0.0
2018-Mar-30 15:59N 49°09' W 123°02'0 0.0
2018-Mar-30 15:31N 49°09' W 123°02'0 0.3
2018-Mar-30 15:01N 49°09' W 123°02'0 0.4
2018-Mar-30 14:30N 49°09' W 123°02'510.2
2018-Mar-30 13:59N 49°07' W 123°10'5 9.7
2018-Mar-30 13:30N 49°07' W 123°17'5 9.7
2018-Mar-30 13:00N 49°02' W 123°19'611.5
2018-Mar-30 12:29N 48°56' W 123°19'510.0
2018-Mar-30 12:00N 48°52' W 123°20'4 7.9
2018-Mar-30 11:29N 48°47' W 123°20'6 2.2
2018-Mar-30 08:49N 48°42' W 123°23'412.3
2018-Mar-30 08:28N 48°46' W 123°21'612.2
2018-Mar-30 08:00N 48°52' W 123°21'5 9.2
2018-Mar-30 07:30N 48°56' W 123°18'713.4
2018-Mar-30 07:00N 49°02' W 123°19'612.8
2018-Mar-30 06:30N 49°08' W 123°14'714.6
2018-Mar-30 06:00N 49°09' W 123°03'1 1.2
2018-Mar-30 05:30N 49°09' W 123°02'0 0.0
2018-Mar-30 05:00N 49°09' W 123°02'0 0.0
2018-Mar-30 04:31N 49°09' W 123°02'0 0.1
2018-Mar-30 04:00N 49°09' W 123°02'0 0.0
2018-Mar-30 03:30N 49°09' W 123°02'0 0.0
2018-Mar-30 03:00N 49°09' W 123°02'0 0.0
2018-Mar-30 02:30N 49°09' W 123°02'0 0.0
2018-Mar-30 02:00N 49°09' W 123°02'0 0.0
2018-Mar-30 01:30N 49°09' W 123°02'0 0.0
2018-Mar-30 01:00N 49°09' W 123°02'0 0.0
2018-Mar-30 00:30N 49°09' W 123°02'0 0.0
2018-Mar-30 00:00N 49°09' W 123°02'0 0.0
2018-Mar-29 23:30N 49°09' W 123°02'0 0.0
2018-Mar-29 23:00N 49°09' W 123°02'0 0.0
2018-Mar-29 22:30N 49°09' W 123°02'0 0.0
2018-Mar-29 22:01N 49°09' W 123°02'0 0.0
2018-Mar-29 21:30N 49°09' W 123°02'0 0.0
2018-Mar-29 21:00N 49°09' W 123°02'0 0.0
2018-Mar-29 20:30N 49°09' W 123°02'0 0.0
2018-Mar-29 20:00N 49°09' W 123°02'0 0.0
2018-Mar-29 19:31N 49°09' W 123°02'0 0.0
2018-Mar-29 19:00N 49°09' W 123°02'0 0.0
2018-Mar-29 18:31N 49°09' W 123°02'0 0.0
2018-Mar-29 18:00N 49°09' W 123°02'0 0.0
2018-Mar-29 17:30N 49°09' W 123°02'0 0.0
2018-Mar-29 17:00N 49°09' W 123°02'0 0.0
2018-Mar-29 16:30N 49°09' W 123°02'0 0.0
2018-Mar-29 16:00N 49°09' W 123°02'0 0.3
2018-Mar-29 15:30N 49°09' W 123°02'0 0.1
2018-Mar-29 15:01N 49°09' W 123°02'0 0.1
2018-Mar-29 14:30N 49°09' W 123°02'510.0
2018-Mar-29 14:00N 49°07' W 123°09'510.7
2018-Mar-29 13:30N 49°07' W 123°17'5 9.6
2018-Mar-29 13:00N 49°02' W 123°20'612.0
2018-Mar-29 12:30N 48°56' W 123°18'5 9.5
2018-Mar-29 12:00N 48°52' W 123°21'4 8.7
2018-Mar-29 11:30N 48°47' W 123°20'510.9
2018-Mar-29 11:00N 48°42' W 123°24'1 0.7
2018-Mar-29 09:03N 48°42' W 123°22'114.2
2018-Mar-29 09:00N 48°43' W 123°21'713.7
2018-Mar-29 08:31N 48°49' W 123°21'5 9.1
2018-Mar-29 08:00N 48°54' W 123°18'713.3
2018-Mar-29 07:31N 48°60' W 123°22'5 9.9
2018-Mar-29 07:00N 49°05' W 123°20'611.9
2018-Mar-29 06:30N 49°08' W 123°13'612.3
2018-Mar-29 06:00N 49°08' W 123°03'1 1.8
2018-Mar-29 05:30N 49°09' W 123°02'0 0.0
2018-Mar-29 05:00N 49°09' W 123°02'0 0.1
2018-Mar-29 04:30N 49°09' W 123°02'0 0.0
2018-Mar-29 04:00N 49°09' W 123°02'0 0.0
2018-Mar-29 03:30N 49°09' W 123°02'0 0.0
2018-Mar-29 03:00N 49°09' W 123°02'0 0.0
2018-Mar-29 02:30N 49°09' W 123°02'0 0.0
2018-Mar-29 02:00N 49°09' W 123°02'0 0.0
2018-Mar-29 01:30N 49°09' W 123°02'0 0.0
2018-Mar-29 01:00N 49°09' W 123°02'0 0.0
2018-Mar-29 00:30N 49°09' W 123°02'0 0.0
2018-Mar-29 00:00N 49°09' W 123°02'0 0.0
2018-Mar-28 23:30N 49°09' W 123°02'0 0.0
2018-Mar-28 23:00N 49°09' W 123°02'0 0.0
2018-Mar-28 22:30N 49°09' W 123°02'0 0.0
2018-Mar-28 22:00N 49°09' W 123°02'0 0.0
2018-Mar-28 21:30N 49°09' W 123°02'0 0.0
2018-Mar-28 21:00N 49°09' W 123°02'0 0.0
2018-Mar-28 20:30N 49°09' W 123°02'0 0.0
2018-Mar-28 20:00N 49°09' W 123°02'0 0.0
2018-Mar-28 19:30N 49°09' W 123°02'0 0.0
2018-Mar-28 19:00N 49°09' W 123°02'0 0.0
2018-Mar-28 18:30N 49°09' W 123°02'0 0.0
2018-Mar-28 18:00N 49°09' W 123°02'0 0.0
2018-Mar-28 17:30N 49°09' W 123°02'0 0.0
2018-Mar-28 17:00N 49°09' W 123°02'0 0.0
2018-Mar-28 16:30N 49°09' W 123°02'  

Dump ship's entire track history